Huvudsida
METAR-TAF:

METAR-TAF

Flygplatser :

Midway, USA

latitud: 28-13N, longitud: 177-22W, höjd: 4 m

Aktuellt väderrapport

Denna rapport gjordes för 41 minuter sedan, klockan 02:56 UTC
Vind 16 kt från väst/sydväst
Temperatur 21°C
Fuktighet 56%
Tryck 1018 hPa
Sikt: 16.1 km
Brutna moln på en höjd av 3700 ft
Mulet på en höjd av 4800 ft

METAR: PMDY 250256Z AUTO 25016KT 10SM BKN037 OVC048 21/12 A3007 RMK AO2 SLP183 T02060117 55009

Tid: 17:37 (03:37 UTC)

Väderprognos

Denna rapport gjordes för 4 timmar och 6 minuter sedan, klockan 23:31 UTC
Prognos gäller från 25 kl. 00 UTC till 25 kl. 24 UTC
Vind 15 kt från väst/sydväst
Sikt: 10 km
Spridda moln på en höjd av 3500 ft
Brutna moln på en höjd av 5000 ft

TAF: PMDY 242331Z 2500/2524 24015KT P6SM SCT035 BKN050

Aktuella väderrapporter och prognoser från 4000 flygplatser (METAR- och TAF-rapporter).

De tillgängliga stationerna syns som gula och röda prickar på kartan.

För musen över prickarna för att se namnen på stationerna.

Klicka sedan för att få väderrapporter och prognoser.

För att ändra kartan: Klicka på de gröna knapparna med ett svart kors på för att zooma in; den gröna knappen med ett streck på för att zooma ut; eller på de gröna pilarna för angränsande kartor.


METAR-TAF: